createdAt,value
2022-08-07T00:00:12.135Z,27.58
2022-08-07T00:02:39.998Z,27.55
2022-08-07T00:04:35.590Z,27.53
2022-08-07T00:06:51.048Z,27.58
2022-08-07T00:08:54.971Z,27.52
2022-08-07T00:10:57.394Z,27.53
2022-08-07T00:13:09.536Z,27.57
2022-08-07T00:15:37.812Z,27.52
2022-08-07T00:17:47.710Z,27.58
2022-08-07T00:20:01.040Z,27.34
2022-08-07T00:22:05.015Z,27.20
2022-08-07T00:24:08.744Z,27.13
2022-08-07T00:26:13.340Z,27.03
2022-08-07T00:28:21.985Z,26.83
2022-08-07T00:30:27.486Z,26.56
2022-08-07T00:32:30.147Z,26.48
2022-08-07T00:34:43.914Z,26.15
2022-08-07T00:36:46.587Z,26.03
2022-08-07T00:38:48.914Z,25.95
2022-08-07T00:40:53.483Z,25.92
2022-08-07T00:42:55.097Z,25.92
2022-08-07T00:44:56.676Z,25.84
2022-08-07T00:46:58.261Z,25.85
2022-08-07T00:49:02.054Z,25.73
2022-08-07T00:51:04.238Z,25.65
2022-08-07T00:53:05.877Z,25.66
2022-08-07T00:55:10.920Z,25.70
2022-08-07T00:57:14.396Z,25.67
2022-08-07T00:59:16.807Z,25.53
2022-08-07T01:01:22.513Z,25.56
2022-08-07T01:03:55.927Z,25.55
2022-08-07T01:05:51.621Z,25.61
2022-08-07T01:07:55.425Z,25.54
2022-08-07T01:10:06.321Z,25.50
2022-08-07T01:12:29.846Z,25.36
2022-08-07T01:14:32.425Z,25.47
2022-08-07T01:16:38.744Z,25.51
2022-08-07T01:18:45.093Z,24.95
2022-08-07T01:20:59.597Z,25.04
2022-08-07T01:23:12.350Z,25.25
2022-08-07T01:25:55.880Z,25.00
2022-08-07T01:27:37.984Z,24.93
2022-08-07T01:29:52.197Z,24.92
2022-08-07T01:31:54.327Z,24.91
2022-08-07T01:33:57.586Z,24.90
2022-08-07T01:36:06.345Z,24.90
2022-08-07T01:38:12.192Z,24.95
2022-08-07T01:40:16.267Z,25.10
2022-08-07T01:42:39.982Z,25.10
2022-08-07T01:44:40.831Z,25.40
2022-08-07T01:46:43.124Z,25.41
2022-08-07T01:48:46.497Z,25.63
2022-08-07T01:50:55.626Z,25.68
2022-08-07T01:52:58.925Z,25.76
2022-08-07T01:55:02.858Z,25.86
2022-08-07T01:57:08.596Z,25.65
2022-08-07T01:59:18.611Z,25.51
2022-08-07T02:02:02.053Z,25.66
2022-08-07T02:03:52.489Z,25.69
2022-08-07T02:05:59.928Z,25.98
2022-08-07T02:08:06.215Z,26.02
2022-08-07T02:10:14.326Z,26.15
2022-08-07T02:12:18.095Z,26.24
2022-08-07T02:14:40.473Z,26.07
2022-08-07T02:16:42.920Z,25.88
2022-08-07T02:18:46.972Z,25.77
2022-08-07T02:20:52.059Z,26.03
2022-08-07T02:23:02.103Z,25.93
2022-08-07T02:25:07.184Z,25.70
2022-08-07T02:27:21.252Z,25.62
2022-08-07T02:29:24.916Z,25.47
2022-08-07T02:31:29.559Z,25.35
2022-08-07T02:33:41.949Z,25.25
2022-08-07T02:36:30.671Z,25.27
2022-08-07T02:38:19.128Z,25.48
2022-08-07T02:40:35.171Z,25.39
2022-08-07T02:42:39.456Z,25.26
2022-08-07T02:44:46.503Z,25.71
2022-08-07T02:46:52.903Z,25.52
2022-08-07T02:48:55.014Z,25.69
2022-08-07T02:50:59.389Z,25.86
2022-08-07T02:53:06.534Z,25.89
2022-08-07T02:55:28.341Z,26.15
2022-08-07T02:57:44.084Z,26.29
2022-08-07T02:59:54.817Z,26.29
2022-08-07T03:01:57.877Z,26.43
2022-08-07T03:04:07.576Z,26.52
2022-08-07T03:06:16.512Z,26.62
2022-08-07T03:08:20.227Z,26.74
2022-08-07T03:10:32.427Z,26.70
2022-08-07T03:12:34.570Z,26.71
2022-08-07T03:14:38.954Z,26.82
2022-08-07T03:16:41.779Z,26.81
2022-08-07T03:18:44.082Z,26.84
2022-08-07T03:20:47.103Z,26.85
2022-08-07T03:22:50.539Z,26.91
2022-08-07T03:24:53.167Z,26.95
2022-08-07T03:26:59.779Z,26.93
2022-08-07T03:29:03.210Z,26.85
2022-08-07T03:31:07.232Z,26.93
2022-08-07T03:33:13.567Z,26.95
2022-08-07T03:35:26.240Z,27.02
2022-08-07T03:37:29.408Z,27.02
2022-08-07T03:39:59.922Z,26.75
2022-08-07T03:41:58.345Z,26.36
2022-08-07T03:44:02.989Z,26.39
2022-08-07T03:46:10.371Z,26.28
2022-08-07T03:48:22.816Z,26.24
2022-08-07T03:50:25.387Z,26.11
2022-08-07T03:52:31.864Z,26.15
2022-08-07T03:54:54.216Z,25.93
2022-08-07T03:57:03.739Z,25.70
2022-08-07T03:59:13.467Z,25.57
2022-08-07T04:01:18.145Z,25.53
2022-08-07T04:03:20.719Z,25.40
2022-08-07T04:05:23.987Z,25.20
2022-08-07T04:07:36.308Z,25.01
2022-08-07T04:09:50.220Z,25.19
2022-08-07T04:12:24.482Z,25.34
2022-08-07T04:14:37.430Z,25.23
2022-08-07T04:16:38.406Z,24.99
2022-08-07T04:18:59.316Z,24.87
2022-08-07T04:21:03.847Z,24.88
2022-08-07T04:23:09.442Z,24.92
2022-08-07T04:25:22.609Z,24.96
2022-08-07T04:27:26.360Z,25.02
2022-08-07T04:29:40.311Z,25.17
2022-08-07T04:32:02.913Z,25.15
2022-08-07T04:34:16.778Z,24.96
2022-08-07T04:36:26.066Z,24.93
2022-08-07T04:38:28.211Z,24.97
2022-08-07T04:40:32.263Z,25.00
2022-08-07T04:42:34.202Z,24.89
2022-08-07T04:44:37.502Z,24.92
2022-08-07T04:47:08.492Z,24.85
2022-08-07T04:49:18.012Z,24.72
2022-08-07T04:51:27.306Z,24.61
2022-08-07T04:54:01.174Z,24.61
2022-08-07T04:58:11.902Z,24.59
2022-08-07T04:59:17.095Z,24.60
2022-08-07T05:01:13.375Z,24.43
2022-08-07T05:03:59.552Z,24.31
2022-08-07T05:05:51.694Z,24.44
2022-08-07T05:08:01.125Z,24.47
2022-08-07T05:10:06.081Z,24.75
2022-08-07T05:12:10.408Z,24.77
2022-08-07T05:14:52.379Z,24.84
2022-08-07T05:16:44.153Z,25.20
2022-08-07T05:18:53.042Z,25.07
2022-08-07T05:21:00.390Z,25.32
2022-08-07T05:23:15.298Z,25.47
2022-08-07T05:25:26.335Z,25.56
2022-08-07T05:28:02.041Z,25.67
2022-08-07T05:30:02.379Z,25.82
2022-08-07T05:32:05.033Z,25.98
2022-08-07T05:34:13.224Z,26.07
2022-08-07T05:36:22.514Z,26.06
2022-08-07T05:38:59.510Z,26.14
2022-08-07T05:40:55.431Z,26.27
2022-08-07T05:43:00.990Z,26.29
2022-08-07T05:45:25.996Z,26.32
2022-08-07T05:47:38.146Z,26.25
2022-08-07T05:49:51.720Z,26.32
2022-08-07T05:51:53.390Z,26.39
2022-08-07T05:54:08.630Z,26.48
2022-08-07T05:56:17.918Z,26.54
2022-08-07T05:58:35.959Z,26.40
2022-08-07T06:00:39.897Z,26.17
2022-08-07T06:02:45.102Z,26.31
2022-08-07T06:04:55.137Z,26.40
2022-08-07T06:07:03.727Z,26.32
2022-08-07T06:09:06.926Z,26.39
2022-08-07T06:11:09.342Z,26.20
2022-08-07T06:13:13.713Z,26.15
2022-08-07T06:15:20.117Z,26.22
2022-08-07T06:17:23.044Z,26.42
2022-08-07T06:19:52.026Z,26.51
2022-08-07T06:22:16.585Z,26.69
2022-08-07T06:24:38.409Z,26.67
2022-08-07T06:26:42.072Z,26.81
2022-08-07T06:28:48.885Z,26.90
2022-08-07T06:30:53.032Z,26.97
2022-08-07T06:32:54.703Z,27.08
2022-08-07T06:34:56.317Z,27.21
2022-08-07T06:36:59.280Z,27.31
2022-08-07T06:40:15.684Z,27.35
2022-08-07T06:42:02.015Z,27.46
2022-08-07T06:44:01.307Z,27.57
2022-08-07T06:46:12.188Z,27.63
2022-08-07T06:48:14.381Z,27.69
2022-08-07T06:50:19.061Z,27.76
2022-08-07T06:52:31.473Z,27.85
2022-08-07T06:55:32.248Z,27.89
2022-08-07T06:57:00.753Z,27.92
2022-08-07T07:00:12.996Z,27.94
2022-08-07T07:01:24.356Z,27.97
2022-08-07T07:03:48.741Z,28.03
2022-08-07T07:06:05.080Z,28.01
2022-08-07T07:08:12.473Z,28.08
2022-08-07T07:10:28.177Z,28.12
2022-08-07T07:12:41.705Z,28.16
2022-08-07T07:14:55.579Z,28.15
2022-08-07T07:17:02.923Z,28.22
2022-08-07T07:19:34.042Z,28.23
2022-08-07T07:22:05.308Z,28.32
2022-08-07T07:24:08.528Z,28.34
2022-08-07T07:26:32.658Z,28.37
2022-08-07T07:29:40.354Z,28.41
2022-08-07T07:31:08.435Z,28.49
2022-08-07T07:33:12.416Z,28.51
2022-08-07T07:35:16.798Z,28.56
2022-08-07T07:37:44.192Z,28.56
2022-08-07T07:39:52.565Z,28.57
2022-08-07T07:42:13.207Z,28.50
2022-08-07T07:44:21.381Z,28.28
2022-08-07T07:46:38.000Z,27.89
2022-08-07T07:48:59.867Z,27.49
2022-08-07T07:51:12.322Z,27.21
2022-08-07T07:53:25.801Z,27.02
2022-08-07T07:55:37.704Z,26.79
2022-08-07T07:57:53.413Z,26.62
2022-08-07T07:59:56.859Z,26.54
2022-08-07T08:02:10.640Z,26.47
2022-08-07T08:04:13.261Z,26.47
2022-08-07T08:06:17.899Z,26.54
2022-08-07T08:08:35.374Z,26.51
2022-08-07T08:10:40.367Z,26.44
2022-08-07T08:12:52.413Z,26.49
2022-08-07T08:15:00.832Z,26.55
2022-08-07T08:17:55.534Z,26.63
2022-08-07T08:20:19.556Z,26.56
2022-08-07T08:21:55.983Z,26.72
2022-08-07T08:24:07.347Z,26.77
2022-08-07T08:26:31.050Z,26.84
2022-08-07T08:28:44.806Z,26.82
2022-08-07T08:30:55.811Z,26.78
2022-08-07T08:33:01.830Z,26.77
2022-08-07T08:35:07.997Z,26.82
2022-08-07T08:37:59.585Z,26.86
2022-08-07T08:39:39.624Z,26.91
2022-08-07T08:42:03.599Z,26.85
2022-08-07T08:44:14.018Z,26.87
2022-08-07T08:46:22.079Z,26.87
2022-08-07T08:48:36.379Z,26.83
2022-08-07T08:50:45.029Z,26.77
2022-08-07T08:52:53.884Z,26.77
2022-08-07T08:55:04.683Z,26.78
2022-08-07T08:57:21.806Z,26.85
2022-08-07T08:59:28.205Z,26.81
2022-08-07T09:01:44.161Z,26.84
2022-08-07T09:03:58.516Z,26.81
2022-08-07T09:06:06.197Z,26.87
2022-08-07T09:08:28.185Z,26.90
2022-08-07T09:10:37.899Z,27.00
2022-08-07T09:13:09.436Z,27.08
2022-08-07T09:16:22.697Z,27.15
2022-08-07T09:17:59.226Z,27.11
2022-08-07T09:20:34.758Z,27.17
2022-08-07T09:24:33.019Z,27.18
2022-08-07T09:25:21.538Z,27.21
2022-08-07T09:27:31.300Z,27.14
2022-08-07T09:30:08.533Z,27.11
2022-08-07T09:32:21.436Z,27.16
2022-08-07T09:34:29.004Z,27.19
2022-08-07T09:36:37.158Z,27.16
2022-08-07T09:38:50.237Z,27.17
2022-08-07T09:41:06.700Z,27.19
2022-08-07T09:43:20.184Z,27.17
2022-08-07T09:47:25.812Z,27.16
2022-08-07T09:48:45.352Z,27.17
2022-08-07T09:51:14.601Z,27.28
2022-08-07T09:53:40.598Z,27.35
2022-08-07T09:56:05.141Z,27.32
2022-08-07T09:58:37.503Z,27.30
2022-08-07T10:00:57.823Z,27.41
2022-08-07T10:04:05.462Z,27.49
2022-08-07T10:06:03.454Z,27.59
2022-08-07T10:08:26.802Z,27.68
2022-08-07T10:13:54.654Z,27.84
2022-08-07T10:16:09.140Z,27.82
2022-08-07T10:18:27.954Z,27.93
2022-08-07T10:20:38.971Z,28.05
2022-08-07T10:22:57.534Z,28.12
2022-08-07T10:25:22.656Z,28.24
2022-08-07T10:27:53.394Z,28.28
2022-08-07T10:30:06.443Z,28.27
2022-08-07T10:32:36.855Z,28.37
2022-08-07T10:35:09.154Z,28.33
2022-08-07T10:37:48.690Z,28.43
2022-08-07T10:40:09.054Z,28.47
2022-08-07T10:42:31.191Z,28.51
2022-08-07T10:44:45.601Z,28.47
2022-08-07T10:46:54.282Z,28.50
2022-08-07T10:49:06.052Z,28.46
2022-08-07T10:51:16.856Z,28.39
2022-08-07T10:53:44.037Z,28.45
2022-08-07T10:55:53.499Z,28.42
2022-08-07T10:58:05.451Z,28.51
2022-08-07T11:00:09.218Z,28.52
2022-08-07T11:02:33.513Z,28.55
2022-08-07T11:04:52.074Z,28.59
2022-08-07T11:07:02.945Z,28.66
2022-08-07T11:09:11.482Z,28.51
2022-08-07T11:11:20.971Z,28.59
2022-08-07T11:14:42.534Z,28.76
2022-08-07T11:15:55.482Z,28.87
2022-08-07T11:18:03.627Z,28.91
2022-08-07T11:20:13.782Z,28.97
2022-08-07T11:22:33.264Z,28.89
2022-08-07T11:24:53.308Z,29.00
2022-08-07T11:27:01.944Z,29.04
2022-08-07T11:29:22.352Z,29.08
2022-08-07T11:31:35.468Z,29.17
2022-08-07T11:33:53.769Z,29.18
2022-08-07T11:36:13.469Z,29.29
2022-08-07T11:38:21.301Z,29.29
2022-08-07T11:40:35.902Z,29.12
2022-08-07T11:42:54.161Z,29.25
2022-08-07T11:45:09.631Z,29.28
2022-08-07T11:47:39.191Z,29.25
2022-08-07T11:50:30.986Z,29.27
2022-08-07T11:52:49.703Z,29.11
2022-08-07T11:55:13.188Z,29.19
2022-08-07T11:57:59.969Z,29.03
2022-08-07T12:00:10.213Z,29.18
2022-08-07T12:02:30.702Z,29.07
2022-08-07T12:04:55.387Z,28.89
2022-08-07T12:07:07.956Z,28.92
2022-08-07T12:09:23.787Z,29.15
2022-08-07T12:11:32.211Z,29.37
2022-08-07T12:13:45.011Z,29.77
2022-08-07T12:16:06.795Z,30.06
2022-08-07T12:18:16.105Z,30.21
2022-08-07T12:20:32.336Z,30.47
2022-08-07T12:22:56.392Z,30.50
2022-08-07T12:25:07.808Z,30.72
2022-08-07T12:27:16.476Z,31.11
2022-08-07T12:29:37.628Z,31.47
2022-08-07T12:32:01.458Z,31.70
2022-08-07T12:34:11.174Z,32.15
2022-08-07T12:36:15.304Z,32.64
2022-08-07T12:38:29.472Z,32.94
2022-08-07T12:40:47.962Z,32.90
2022-08-07T12:42:52.687Z,33.67
2022-08-07T12:45:04.671Z,33.51
2022-08-07T12:47:21.757Z,33.75
2022-08-07T12:49:48.939Z,34.44
2022-08-07T12:52:13.842Z,34.69
2022-08-07T12:54:37.998Z,35.05
2022-08-07T12:56:51.322Z,35.51
2022-08-07T12:58:59.577Z,35.49
2022-08-07T13:01:08.700Z,35.79
2022-08-07T13:03:53.615Z,35.74
2022-08-07T13:06:03.818Z,36.10
2022-08-07T13:08:43.572Z,36.01
2022-08-07T13:10:59.819Z,36.54
2022-08-07T13:13:48.133Z,36.89
2022-08-07T13:15:50.931Z,37.18
2022-08-07T13:18:03.320Z,36.72
2022-08-07T13:20:12.128Z,36.65
2022-08-07T13:22:27.703Z,36.67
2022-08-07T13:24:43.941Z,36.92
2022-08-07T13:27:03.628Z,37.14
2022-08-07T13:29:14.038Z,37.07
2022-08-07T13:31:22.698Z,37.03
2022-08-07T13:34:30.715Z,36.74
2022-08-07T13:36:00.932Z,36.50
2022-08-07T13:38:13.853Z,36.42
2022-08-07T13:40:35.675Z,36.83
2022-08-07T13:42:45.957Z,36.57
2022-08-07T13:45:20.952Z,36.90
2022-08-07T13:47:21.732Z,37.38
2022-08-07T13:50:33.009Z,37.67
2022-08-07T13:52:22.999Z,37.77
2022-08-07T13:54:22.494Z,38.05
2022-08-07T13:56:35.297Z,37.62
2022-08-07T13:58:56.339Z,37.53
2022-08-07T14:01:09.018Z,37.98
2022-08-07T14:03:13.803Z,38.48
2022-08-07T14:05:22.084Z,38.46
2022-08-07T14:07:28.652Z,38.51
2022-08-07T14:10:02.693Z,38.50
2022-08-07T14:12:00.398Z,38.44
2022-08-07T14:14:04.896Z,37.94
2022-08-07T14:16:15.274Z,37.07
2022-08-07T14:18:28.675Z,36.57
2022-08-07T14:20:42.160Z,36.66
2022-08-07T14:22:48.735Z,36.38
2022-08-07T14:24:54.168Z,35.70
2022-08-07T14:26:59.201Z,35.02
2022-08-07T14:30:05.757Z,34.57
2022-08-07T14:31:42.691Z,34.23
2022-08-07T14:33:52.083Z,34.09
2022-08-07T14:35:56.201Z,33.53
2022-08-07T14:38:06.075Z,32.99
2022-08-07T14:40:27.088Z,33.15
2022-08-07T14:42:33.658Z,32.94
2022-08-07T14:44:37.071Z,32.98
2022-08-07T14:46:52.014Z,32.60
2022-08-07T14:49:56.098Z,32.03
2022-08-07T14:52:04.724Z,31.79
2022-08-07T14:54:09.832Z,31.61
2022-08-07T14:56:15.572Z,31.01
2022-08-07T14:58:35.363Z,31.11
2022-08-07T15:00:39.444Z,31.14
2022-08-07T15:02:44.680Z,31.30
2022-08-07T15:05:01.636Z,31.06
2022-08-07T15:07:47.438Z,31.06
2022-08-07T15:09:59.136Z,31.09
2022-08-07T15:12:10.064Z,30.95
2022-08-07T15:14:30.603Z,30.97
2022-08-07T15:16:38.734Z,31.00
2022-08-07T15:19:01.332Z,31.16
2022-08-07T15:21:08.358Z,31.22
2022-08-07T15:25:56.238Z,31.16
2022-08-07T15:28:33.040Z,31.16
2022-08-07T15:30:24.929Z,31.22
2022-08-07T15:32:39.841Z,31.16
2022-08-07T15:34:56.984Z,31.05
2022-08-07T15:37:06.763Z,30.86
2022-08-07T15:39:10.774Z,30.89
2022-08-07T15:41:24.074Z,31.07
2022-08-07T15:43:55.614Z,31.12
2022-08-07T15:46:32.348Z,31.26
2022-08-07T15:49:03.853Z,31.30
2022-08-07T15:51:10.064Z,31.37
2022-08-07T15:53:52.216Z,31.42
2022-08-07T15:56:02.776Z,31.28
2022-08-07T15:58:11.681Z,31.28
2022-08-07T16:00:33.628Z,31.29
2022-08-07T16:02:40.408Z,31.35
2022-08-07T16:04:44.035Z,31.28
2022-08-07T16:06:52.457Z,31.29
2022-08-07T16:09:01.172Z,31.21
2022-08-07T16:11:27.221Z,31.28
2022-08-07T16:14:03.089Z,31.31
2022-08-07T16:16:47.768Z,31.26
2022-08-07T16:18:50.885Z,31.26
2022-08-07T16:21:56.910Z,31.05
2022-08-07T16:23:58.322Z,31.03
2022-08-07T16:26:08.154Z,31.06
2022-08-07T16:30:09.076Z,31.04
2022-08-07T16:30:53.747Z,30.97
2022-08-07T16:34:02.959Z,31.02
2022-08-07T16:35:59.413Z,30.99
2022-08-07T16:38:15.796Z,30.97
2022-08-07T16:41:01.501Z,30.86
2022-08-07T16:43:18.646Z,30.66
2022-08-07T16:46:10.994Z,30.67
2022-08-07T16:50:20.671Z,30.75
2022-08-07T16:52:02.007Z,30.54
2022-08-07T16:54:32.913Z,30.21
2022-08-07T16:56:49.802Z,30.37
2022-08-07T16:59:14.329Z,30.50
2022-08-07T17:01:41.230Z,30.63
2022-08-07T17:03:59.509Z,30.55
2022-08-07T17:06:31.360Z,30.65
2022-08-07T17:09:04.249Z,30.65
2022-08-07T17:11:07.192Z,30.67
2022-08-07T17:14:19.167Z,30.53
2022-08-07T17:16:12.148Z,30.56
2022-08-07T17:18:17.868Z,30.54
2022-08-07T17:20:31.012Z,30.56
2022-08-07T17:22:38.114Z,30.62
2022-08-07T17:24:55.368Z,30.65
2022-08-07T17:27:02.808Z,30.60
2022-08-07T17:30:12.374Z,30.57
2022-08-07T17:32:03.169Z,30.50
2022-08-07T17:34:33.121Z,30.53
2022-08-07T17:36:57.634Z,30.47
2022-08-07T17:39:10.546Z,30.50
2022-08-07T17:42:04.182Z,30.51
2022-08-07T17:44:02.822Z,30.43
2022-08-07T17:46:15.324Z,30.36
2022-08-07T17:48:31.032Z,30.43
2022-08-07T17:50:47.101Z,30.42
2022-08-07T17:52:55.228Z,30.35
2022-08-07T17:55:05.486Z,30.34
2022-08-07T17:57:19.567Z,30.36
2022-08-07T17:59:35.976Z,30.37
2022-08-07T18:01:48.412Z,30.35
2022-08-07T18:04:16.403Z,30.30
2022-08-07T18:06:38.516Z,30.21
2022-08-07T18:09:01.052Z,30.17
2022-08-07T18:12:08.249Z,30.15
2022-08-07T18:13:44.788Z,30.05
2022-08-07T18:16:03.611Z,30.06
2022-08-07T18:18:46.500Z,30.09
2022-08-07T18:21:08.595Z,30.09
2022-08-07T18:23:05.946Z,30.00
2022-08-07T18:25:40.084Z,29.96
2022-08-07T18:28:06.334Z,29.94
2022-08-07T18:30:31.631Z,29.95
2022-08-07T18:32:46.354Z,29.99
2022-08-07T18:35:09.002Z,30.00
2022-08-07T18:38:57.225Z,29.92
2022-08-07T18:40:07.535Z,29.96
2022-08-07T18:42:20.803Z,30.00
2022-08-07T18:44:45.950Z,30.06
2022-08-07T18:47:05.608Z,30.06
2022-08-07T18:50:32.921Z,30.06
2022-08-07T18:52:33.635Z,30.01
2022-08-07T18:54:31.236Z,30.01
2022-08-07T18:56:58.315Z,30.01
2022-08-07T18:59:47.431Z,30.03
2022-08-07T19:02:17.943Z,30.01
2022-08-07T19:04:13.233Z,30.03
2022-08-07T19:06:33.868Z,30.03
2022-08-07T19:08:49.527Z,30.01
2022-08-07T19:11:36.033Z,30.00
2022-08-07T19:13:38.061Z,29.96
2022-08-07T19:16:05.270Z,29.96
2022-08-07T19:18:14.516Z,29.93
2022-08-07T19:20:29.833Z,29.91
2022-08-07T19:22:40.298Z,29.88
2022-08-07T19:24:47.985Z,29.85
2022-08-07T19:27:16.659Z,29.85
2022-08-07T19:31:05.119Z,29.80
2022-08-07T19:32:10.832Z,29.70
2022-08-07T19:34:11.878Z,29.61
2022-08-07T19:36:16.956Z,29.59
2022-08-07T19:38:34.075Z,29.58
2022-08-07T19:40:50.675Z,29.60
2022-08-07T19:42:55.402Z,29.58
2022-08-07T19:45:00.536Z,29.57
2022-08-07T19:47:14.470Z,29.53
2022-08-07T19:49:18.972Z,29.55
2022-08-07T19:51:52.736Z,29.55
2022-08-07T19:54:29.946Z,29.53
2022-08-07T19:57:52.182Z,29.49
2022-08-07T19:58:54.168Z,29.43
2022-08-07T20:00:57.770Z,29.39
2022-08-07T20:03:01.769Z,29.38
2022-08-07T20:05:07.905Z,29.37
2022-08-07T20:07:11.737Z,29.31
2022-08-07T20:10:34.082Z,29.24
2022-08-07T20:12:22.912Z,29.21
2022-08-07T20:14:03.148Z,29.15
2022-08-07T20:16:32.115Z,29.10
2022-08-07T20:18:34.572Z,29.10
2022-08-07T20:20:38.140Z,29.11
2022-08-07T20:22:45.223Z,29.08
2022-08-07T20:24:52.536Z,29.07
2022-08-07T20:26:58.593Z,29.01
2022-08-07T20:29:10.656Z,29.03
2022-08-07T20:31:27.324Z,29.05
2022-08-07T20:33:38.273Z,29.02
2022-08-07T20:35:54.358Z,28.99
2022-08-07T20:38:06.571Z,28.96
2022-08-07T20:40:31.195Z,28.92
2022-08-07T20:42:37.272Z,28.89
2022-08-07T20:44:45.473Z,28.87
2022-08-07T20:47:05.886Z,28.84
2022-08-07T20:49:59.425Z,28.82
2022-08-07T20:51:35.945Z,28.76
2022-08-07T20:54:04.101Z,28.70
2022-08-07T20:56:02.526Z,28.67
2022-08-07T20:58:12.018Z,28.65
2022-08-07T21:00:22.374Z,28.61
2022-08-07T21:02:28.048Z,28.60
2022-08-07T21:04:34.109Z,28.62
2022-08-07T21:06:37.988Z,28.61
2022-08-07T21:08:46.695Z,28.56
2022-08-07T21:10:50.615Z,28.56
2022-08-07T21:12:56.660Z,28.46
2022-08-07T21:15:02.940Z,28.33
2022-08-07T21:18:17.525Z,28.31
2022-08-07T21:19:51.856Z,28.32
2022-08-07T21:21:57.732Z,28.35
2022-08-07T21:24:07.060Z,28.33
2022-08-07T21:26:30.857Z,28.35
2022-08-07T21:28:48.497Z,28.40
2022-08-07T21:31:02.417Z,28.40
2022-08-07T21:33:16.497Z,28.33
2022-08-07T21:35:34.622Z,28.32
2022-08-07T21:37:58.020Z,28.25
2022-08-07T21:40:08.606Z,28.27
2022-08-07T21:42:42.518Z,28.24
2022-08-07T21:44:53.165Z,28.15
2022-08-07T21:46:59.960Z,28.10
2022-08-07T21:49:14.476Z,28.12
2022-08-07T21:51:32.037Z,28.12
2022-08-07T21:53:46.535Z,28.01
2022-08-07T21:56:03.141Z,28.00
2022-08-07T21:58:07.862Z,27.99
2022-08-07T22:00:23.109Z,27.95
2022-08-07T22:02:34.408Z,28.02
2022-08-07T22:04:42.416Z,28.07
2022-08-07T22:07:03.263Z,28.03
2022-08-07T22:09:08.180Z,27.95
2022-08-07T22:11:14.201Z,27.89
2022-08-07T22:13:16.535Z,27.85
2022-08-07T22:16:39.713Z,27.89
2022-08-07T22:17:53.443Z,27.86
2022-08-07T22:20:10.836Z,27.89
2022-08-07T22:22:34.267Z,27.81
2022-08-07T22:24:55.165Z,27.92
2022-08-07T22:27:01.869Z,27.92
2022-08-07T22:29:13.785Z,27.94
2022-08-07T22:31:45.286Z,28.00
2022-08-07T22:33:56.205Z,27.90
2022-08-07T22:36:04.500Z,27.76
2022-08-07T22:38:13.916Z,27.62
2022-08-07T22:40:28.376Z,27.63
2022-08-07T22:42:35.312Z,27.64
2022-08-07T22:44:57.896Z,27.62
2022-08-07T22:47:28.351Z,27.54
2022-08-07T22:49:54.090Z,27.53
2022-08-07T22:52:36.920Z,27.37
2022-08-07T22:55:17.460Z,27.35
2022-08-07T22:57:49.949Z,27.21
2022-08-07T22:59:58.047Z,27.18
2022-08-07T23:02:07.554Z,27.14
2022-08-07T23:04:30.833Z,27.05
2022-08-07T23:06:58.987Z,26.95
2022-08-07T23:10:01.174Z,26.98
2022-08-07T23:11:51.342Z,26.96
2022-08-07T23:14:24.080Z,27.01
2022-08-07T23:16:46.470Z,26.99
2022-08-07T23:19:02.516Z,26.94
2022-08-07T23:21:29.858Z,27.00
2022-08-07T23:24:06.491Z,27.06
2022-08-07T23:26:23.336Z,27.06
2022-08-07T23:28:54.447Z,27.09
2022-08-07T23:31:18.781Z,27.11
2022-08-07T23:34:34.557Z,27.17
2022-08-07T23:36:28.964Z,27.25
2022-08-07T23:38:54.721Z,27.26
2022-08-07T23:41:08.942Z,27.19
2022-08-07T23:43:48.581Z,27.10
2022-08-07T23:46:10.824Z,27.00
2022-08-07T23:48:28.930Z,26.93
2022-08-07T23:50:45.162Z,26.93
2022-08-07T23:53:06.148Z,26.99
2022-08-07T23:55:52.141Z,26.96
2022-08-07T23:57:44.018Z,26.94
